Anawalt, West Virginia
Current Conditions -  °F | °C
As of 12:52 AM on Sunday 23 Nov 2014 (Local Time) from KBLF Reporting Station
Clear Clear  
Wind Chill: 47°   Ceiling: Unl
Heat Index: 47°   Visibility: 10mi
Dew Point: 19°   Wind: 0mph
Humidity: 33%   Direction: NA
Pressure: 30.19"   Gusts: NA
Location:  37.34°N, 81.44°W
Report Text: KBLF 230552Z AUTO 00000KT 10SM CLR 08/M07 A3019 RMK AO2 SLP214 T00831072 10094 20056 58005
Loading
Personal Weather Stations






























Interactive Weather Map New forecast layout! Learn more

10-Day Weather Forecast

Advertisements
Track Severe Weather on mobile